Daikoku — JD3247 — position and weather

sailwx.info

Track history (hours):
 
Tides and Currents Weather Stations Pressure Air Temp Water Temp Dewpoint Dewpoint Depression Visibility Wind Speed Wind Dir Waves Ship Positions

Daikoku

Last reported at 2014-Dec-22 08:18 UTC. Time now 2014-Dec-22 22:43 UTC.
Position N 34°14' E 134°58'.

Length 95 m; draft 3.9 m.

Type: Cargo ship. MMSI: 431003009.

Date/timePositionNaut miles runAvg speedWind from/ knotsBaromVisibWave heightAir tempDewpointWater temp
2014-Dec-22 08:18N 34°14' E 134°58'911.5
2014-Dec-22 07:32N 34°23' E 135°02'1212.2
2014-Dec-22 06:33N 34°31' E 135°12'1010.0
2014-Dec-22 05:33N 34°41' E 135°16'0 0.0
2014-Dec-22 04:33N 34°41' E 135°16'2 1.5
2014-Dec-22 03:29N 34°39' E 135°15'1 0.7
2014-Dec-22 02:33N 34°40' E 135°14'0 0.0
2014-Dec-22 01:22N 34°40' E 135°14'0 0.3
2014-Dec-22 00:33N 34°40' E 135°14'1 0.7
2014-Dec-21 23:30N 34°39' E 135°15'3 2.4
2014-Dec-21 22:24N 34°41' E 135°13'0 0.0
2014-Dec-21 21:24N 34°41' E 135°13'0 0.0
2014-Dec-21 20:33N 34°41' E 135°13'8 7.8
2014-Dec-21 19:33N 34°33' E 135°14'1313.1
2014-Dec-21 18:33N 34°23' E 135°04'1211.8
2014-Dec-21 17:33N 34°12' E 134°59'1312.7
2014-Dec-21 16:33N 33°60' E 135°00'239 9.6
2014-Dec-20 15:33N 35°06' E 139°39'1111.1
2014-Dec-20 14:34N 35°15' E 139°46'10 9.8
2014-Dec-20 13:33N 35°24' E 139°41'0 0.0
2014-Dec-20 12:31N 35°24' E 139°41'1 1.0
2014-Dec-20 11:33N 35°23' E 139°40'3 2.8
2014-Dec-20 10:33N 35°22' E 139°43'0 0.0
2014-Dec-20 09:30N 35°22' E 139°43'5 5.1
2014-Dec-20 08:34N 35°18' E 139°45'7 0.3
2014-Dec-19 10:17N 35°10' E 139°45'911.7
2014-Dec-19 09:33N 35°19' E 139°43'9 9.1
2014-Dec-19 08:33N 35°28' E 139°42'0 0.2
2014-Dec-19 07:33N 35°27' E 139°41'2 2.2
2014-Dec-19 06:33N 35°27' E 139°44'3 2.5
2014-Dec-19 05:32N 35°26' E 139°41'0 0.0
2014-Dec-19 04:32N 35°26' E 139°41'2 1.7
2014-Dec-19 03:34N 35°26' E 139°43'5 5.0
2014-Dec-19 02:32N 35°29' E 139°48'7 2.2
2014-Dec-18 23:19N 35°36' E 139°46'8 3.7
2014-Dec-18 21:04N 35°30' E 139°52'712.6
2014-Dec-18 20:33N 35°25' E 139°47'1111.1
2014-Dec-18 19:33N 35°14' E 139°47'  
2014-Dec-15 07:16N 34°22' E 135°01'811.8
2014-Dec-15 06:33N 34°28' E 135°08'1211.7
2014-Dec-15 05:33N 34°38' E 135°16'3 2.2
2014-Dec-15 04:22N 34°40' E 135°14'0 0.0
2014-Dec-15 03:28N 34°39' E 135°14'2 2.1
2014-Dec-15 02:32N 34°41' E 135°16'0 0.0
2014-Dec-15 01:27N 34°41' E 135°16'2 1.8
2014-Dec-15 00:28N 34°39' E 135°15'0 0.0
2014-Dec-14 23:33N 34°39' E 135°15'2 2.1
2014-Dec-14 22:30N 34°37' E 135°16'0 0.0
2014-Dec-14 21:30N 34°37' E 135°16'0 0.0
2014-Dec-14 20:30N 34°37' E 135°16'0 0.0
2014-Dec-14 19:30N 34°37' E 135°16'0 0.0
2014-Dec-14 18:30N 34°37' E 135°16'0 0.0
2014-Dec-14 17:30N 34°37' E 135°16'3 3.3
2014-Dec-14 16:33N 34°34' E 135°14'1212.5
2014-Dec-14 15:34N 34°24' E 135°05'1211.6
2014-Dec-14 14:33N 34°14' E 134°60'1211.5
2014-Dec-14 13:33N 34°02' E 135°01'241 7.8
2014-Dec-13 06:29N 35°06' E 139°43'9 9.3
2014-Dec-13 05:33N 35°15' E 139°46'1010.6
2014-Dec-13 04:34N 35°24' E 139°41'1 1.4
2014-Dec-13 03:33N 35°23' E 139°42'2 1.5
2014-Dec-13 02:32N 35°24' E 139°44'0 0.0
2014-Dec-13 01:32N 35°24' E 139°44'0 0.0
2014-Dec-13 00:32N 35°24' E 139°44'0 0.1
2014-Dec-12 23:32N 35°24' E 139°44'0 0.1
2014-Dec-12 22:29N 35°24' E 139°44'0 0.1
2014-Dec-12 21:32N 35°24' E 139°44'0 0.0
2014-Dec-12 20:32N 35°24' E 139°44'0 0.0
2014-Dec-12 19:32N 35°24' E 139°44'0 0.0
2014-Dec-12 18:32N 35°24' E 139°44'0 0.1
2014-Dec-12 17:32N 35°24' E 139°44'0 0.0
2014-Dec-12 16:32N 35°24' E 139°44'0 0.0
2014-Dec-12 15:32N 35°24' E 139°44'0 0.0
2014-Dec-12 14:32N 35°24' E 139°44'0 0.0
2014-Dec-12 13:32N 35°24' E 139°44'0 0.1
2014-Dec-12 12:32N 35°24' E 139°44'0 0.0
2014-Dec-12 11:26N 35°24' E 139°44'0 0.1
2014-Dec-12 10:32N 35°24' E 139°44'0 0.1
2014-Dec-12 09:32N 35°24' E 139°44'4 4.5
2014-Dec-12 08:33N 35°28' E 139°42'  
Track history (hours):
 
Tides and Currents Weather Stations Pressure Air Temp Water Temp Dewpoint Dewpoint Depression Visibility Wind Speed Wind Dir Waves Ship Positions

Daikoku

Last reported at 2014-Dec-22 08:18 UTC. Time now 2014-Dec-22 22:43 UTC.
Position N 34°14' E 134°58'.

Length 95 m; draft 3.9 m.

Type: Cargo ship. MMSI: 431003009.

Date/timePositionNaut miles runAvg speedWind from/ knotsBaromVisibWave heightAir tempDewpointWater temp
2014-Dec-22 08:18N 34°14' E 134°58'911.5
2014-Dec-22 07:32N 34°23' E 135°02'1212.2
2014-Dec-22 06:33N 34°31' E 135°12'1010.0
2014-Dec-22 05:33N 34°41' E 135°16'0 0.0
2014-Dec-22 04:33N 34°41' E 135°16'2 1.5
2014-Dec-22 03:29N 34°39' E 135°15'1 0.7
2014-Dec-22 02:33N 34°40' E 135°14'0 0.0
2014-Dec-22 01:22N 34°40' E 135°14'0 0.3
2014-Dec-22 00:33N 34°40' E 135°14'1 0.7
2014-Dec-21 23:30N 34°39' E 135°15'3 2.4
2014-Dec-21 22:24N 34°41' E 135°13'0 0.0
2014-Dec-21 21:24N 34°41' E 135°13'0 0.0
2014-Dec-21 20:33N 34°41' E 135°13'8 7.8
2014-Dec-21 19:33N 34°33' E 135°14'1313.1
2014-Dec-21 18:33N 34°23' E 135°04'1211.8
2014-Dec-21 17:33N 34°12' E 134°59'1312.7
2014-Dec-21 16:33N 33°60' E 135°00'239 9.6
2014-Dec-20 15:33N 35°06' E 139°39'1111.1
2014-Dec-20 14:34N 35°15' E 139°46'10 9.8
2014-Dec-20 13:33N 35°24' E 139°41'0 0.0
2014-Dec-20 12:31N 35°24' E 139°41'1 1.0
2014-Dec-20 11:33N 35°23' E 139°40'3 2.8
2014-Dec-20 10:33N 35°22' E 139°43'0 0.0
2014-Dec-20 09:30N 35°22' E 139°43'5 5.1
2014-Dec-20 08:34N 35°18' E 139°45'7 0.3
2014-Dec-19 10:17N 35°10' E 139°45'911.7
2014-Dec-19 09:33N 35°19' E 139°43'9 9.1
2014-Dec-19 08:33N 35°28' E 139°42'0 0.2
2014-Dec-19 07:33N 35°27' E 139°41'2 2.2
2014-Dec-19 06:33N 35°27' E 139°44'3 2.5
2014-Dec-19 05:32N 35°26' E 139°41'0 0.0
2014-Dec-19 04:32N 35°26' E 139°41'2 1.7
2014-Dec-19 03:34N 35°26' E 139°43'5 5.0
2014-Dec-19 02:32N 35°29' E 139°48'7 2.2
2014-Dec-18 23:19N 35°36' E 139°46'8 3.7
2014-Dec-18 21:04N 35°30' E 139°52'712.6
2014-Dec-18 20:33N 35°25' E 139°47'1111.1
2014-Dec-18 19:33N 35°14' E 139°47'  
2014-Dec-15 07:16N 34°22' E 135°01'811.8
2014-Dec-15 06:33N 34°28' E 135°08'1211.7
2014-Dec-15 05:33N 34°38' E 135°16'3 2.2
2014-Dec-15 04:22N 34°40' E 135°14'0 0.0
2014-Dec-15 03:28N 34°39' E 135°14'2 2.1
2014-Dec-15 02:32N 34°41' E 135°16'0 0.0
2014-Dec-15 01:27N 34°41' E 135°16'2 1.8
2014-Dec-15 00:28N 34°39' E 135°15'0 0.0
2014-Dec-14 23:33N 34°39' E 135°15'2 2.1
2014-Dec-14 22:30N 34°37' E 135°16'0 0.0
2014-Dec-14 21:30N 34°37' E 135°16'0 0.0
2014-Dec-14 20:30N 34°37' E 135°16'0 0.0
2014-Dec-14 19:30N 34°37' E 135°16'0 0.0
2014-Dec-14 18:30N 34°37' E 135°16'0 0.0
2014-Dec-14 17:30N 34°37' E 135°16'3 3.3
2014-Dec-14 16:33N 34°34' E 135°14'1212.5
2014-Dec-14 15:34N 34°24' E 135°05'1211.6
2014-Dec-14 14:33N 34°14' E 134°60'1211.5
2014-Dec-14 13:33N 34°02' E 135°01'241 7.8
2014-Dec-13 06:29N 35°06' E 139°43'9 9.3
2014-Dec-13 05:33N 35°15' E 139°46'1010.6
2014-Dec-13 04:34N 35°24' E 139°41'1 1.4
2014-Dec-13 03:33N 35°23' E 139°42'2 1.5
2014-Dec-13 02:32N 35°24' E 139°44'0 0.0
2014-Dec-13 01:32N 35°24' E 139°44'0 0.0
2014-Dec-13 00:32N 35°24' E 139°44'0 0.1
2014-Dec-12 23:32N 35°24' E 139°44'0 0.1
2014-Dec-12 22:29N 35°24' E 139°44'0 0.1
2014-Dec-12 21:32N 35°24' E 139°44'0 0.0
2014-Dec-12 20:32N 35°24' E 139°44'0 0.0
2014-Dec-12 19:32N 35°24' E 139°44'0 0.0
2014-Dec-12 18:32N 35°24' E 139°44'0 0.1
2014-Dec-12 17:32N 35°24' E 139°44'0 0.0
2014-Dec-12 16:32N 35°24' E 139°44'0 0.0
2014-Dec-12 15:32N 35°24' E 139°44'0 0.0
2014-Dec-12 14:32N 35°24' E 139°44'0 0.0
2014-Dec-12 13:32N 35°24' E 139°44'0 0.1
2014-Dec-12 12:32N 35°24' E 139°44'0 0.0
2014-Dec-12 11:26N 35°24' E 139°44'0 0.1
2014-Dec-12 10:32N 35°24' E 139°44'0 0.1
2014-Dec-12 09:32N 35°24' E 139°44'4 4.5
2014-Dec-12 08:33N 35°28' E 139°42'  

Dump ship's entire track history